createdAt,value
2022-09-02T00:01:35.841Z,1.10
2022-09-02T00:04:07.487Z,1.00
2022-09-02T00:06:36.749Z,1.13
2022-09-02T00:09:07.839Z,1.00
2022-09-02T00:11:38.941Z,1.45
2022-09-02T00:14:11.122Z,1.10
2022-09-02T00:16:51.712Z,1.23
2022-09-02T00:19:22.024Z,1.00
2022-09-02T00:21:51.544Z,1.02
2022-09-02T00:24:20.206Z,1.15
2022-09-02T00:26:49.398Z,1.20
2022-09-02T00:29:18.565Z,1.10
2022-09-02T00:31:49.884Z,1.02
2022-09-02T00:34:18.874Z,1.20
2022-09-02T00:36:47.206Z,1.05
2022-09-02T00:39:15.927Z,1.13
2022-09-02T00:41:45.280Z,1.23
2022-09-02T00:44:16.385Z,1.30
2022-09-02T00:46:45.300Z,1.10
2022-09-02T00:49:19.376Z,1.13
2022-09-02T00:51:52.613Z,1.00
2022-09-02T00:54:24.053Z,1.00
2022-09-02T00:56:55.578Z,1.10
2022-09-02T00:59:29.685Z,1.10
2022-09-02T01:01:58.884Z,1.10
2022-09-02T01:04:29.375Z,1.15
2022-09-02T01:06:58.015Z,1.10
2022-09-02T01:09:26.576Z,1.10
2022-09-02T01:11:55.633Z,1.10
2022-09-02T01:14:28.565Z,1.25
2022-09-02T01:17:00.899Z,1.15
2022-09-02T01:19:37.992Z,1.10
2022-09-02T01:22:17.226Z,0.82
2022-09-02T01:24:45.559Z,1.10
2022-09-02T01:27:16.742Z,1.23
2022-09-02T01:29:45.067Z,1.20
2022-09-02T01:32:14.109Z,1.30
2022-09-02T01:34:42.681Z,1.10
2022-09-02T01:37:12.907Z,1.25
2022-09-02T01:39:42.065Z,1.30
2022-09-02T01:42:10.915Z,1.10
2022-09-02T01:44:44.253Z,1.20
2022-09-02T01:47:14.037Z,1.08
2022-09-02T01:49:43.036Z,1.05
2022-09-02T01:52:15.084Z,1.00
2022-09-02T01:54:44.598Z,1.08
2022-09-02T01:57:14.973Z,1.10
2022-09-02T01:59:44.729Z,1.13
2022-09-02T02:02:13.692Z,1.10
2022-09-02T02:04:43.402Z,1.02
2022-09-02T02:07:14.370Z,1.25
2022-09-02T02:09:43.419Z,1.00
2022-09-02T02:12:15.464Z,1.10
2022-09-02T02:14:44.132Z,1.27
2022-09-02T02:17:12.593Z,1.00
2022-09-02T02:19:41.968Z,0.98
2022-09-02T02:22:10.896Z,1.13
2022-09-02T02:24:40.781Z,1.00
2022-09-02T02:27:09.213Z,1.08
2022-09-02T02:29:37.792Z,0.82
2022-09-02T02:32:08.030Z,1.02
2022-09-02T02:34:36.592Z,0.90
2022-09-02T02:37:05.875Z,1.10
2022-09-02T02:39:34.419Z,1.00
2022-09-02T02:42:04.654Z,1.08
2022-09-02T02:44:33.382Z,1.10
2022-09-02T02:47:02.237Z,1.58
2022-09-02T02:49:30.992Z,1.33
2022-09-02T02:51:59.393Z,1.40
2022-09-02T02:54:35.137Z,1.20
2022-09-02T02:57:07.919Z,1.10
2022-09-02T02:59:36.964Z,1.20
2022-09-02T03:02:06.452Z,1.00
2022-09-02T03:04:36.827Z,1.20
2022-09-02T03:07:07.340Z,1.00
2022-09-02T03:09:36.834Z,1.10
2022-09-02T03:12:09.471Z,1.10
2022-09-02T03:14:38.298Z,1.10
2022-09-02T03:17:07.239Z,1.10
2022-09-02T03:19:35.883Z,0.93
2022-09-02T03:22:05.159Z,1.20
2022-09-02T03:24:34.711Z,0.93
2022-09-02T03:27:03.142Z,1.23
2022-09-02T03:29:33.601Z,1.25
2022-09-02T03:32:02.982Z,1.30
2022-09-02T03:34:33.032Z,1.13
2022-09-02T03:37:01.445Z,1.10
2022-09-02T03:39:30.615Z,1.30
2022-09-02T03:41:59.076Z,1.20
2022-09-02T03:44:29.766Z,1.17
2022-09-02T03:46:59.657Z,1.10
2022-09-02T03:49:28.693Z,1.10
2022-09-02T03:51:57.136Z,1.10
2022-09-02T03:54:25.937Z,1.00
2022-09-02T03:56:54.638Z,1.30
2022-09-02T03:59:25.237Z,1.20
2022-09-02T04:01:53.753Z,1.10
2022-09-02T04:04:24.280Z,1.40
2022-09-02T04:06:54.383Z,1.20
2022-09-02T04:09:23.451Z,1.27
2022-09-02T04:11:52.462Z,1.30
2022-09-02T04:14:21.282Z,1.40
2022-09-02T04:17:44.678Z,1.10
2022-09-02T04:21:12.766Z,1.10
2022-09-02T04:23:41.668Z,1.30
2022-09-02T04:26:12.451Z,1.20
2022-09-02T04:28:41.466Z,1.52
2022-09-02T04:31:13.118Z,1.25
2022-09-02T04:33:42.902Z,1.33
2022-09-02T04:36:18.154Z,1.35
2022-09-02T04:38:50.804Z,1.20
2022-09-02T04:41:24.890Z,1.50
2022-09-02T04:43:57.664Z,1.40
2022-09-02T04:46:34.237Z,1.30
2022-09-02T04:49:04.978Z,1.30
2022-09-02T04:51:37.507Z,1.70
2022-09-02T04:54:08.000Z,1.45
2022-09-02T04:56:39.046Z,1.60
2022-09-02T04:59:10.276Z,1.30
2022-09-02T05:01:43.240Z,1.48
2022-09-02T05:04:18.442Z,1.20
2022-09-02T05:09:22.263Z,1.08
2022-09-02T05:11:58.669Z,1.27
2022-09-02T05:14:33.431Z,1.35
2022-09-02T05:19:40.383Z,1.20
2022-09-02T05:22:10.860Z,1.23
2022-09-02T05:24:43.630Z,1.27
2022-09-02T05:27:16.422Z,1.20
2022-09-02T05:29:46.874Z,1.17
2022-09-02T05:32:17.862Z,1.30
2022-09-02T05:34:49.150Z,1.48
2022-09-02T05:37:19.765Z,1.20
2022-09-02T05:39:50.017Z,1.20
2022-09-02T05:42:20.648Z,1.42
2022-09-02T05:44:53.118Z,1.20
2022-09-02T05:47:25.345Z,1.38
2022-09-02T05:49:54.584Z,1.20
2022-09-02T05:52:26.988Z,1.42
2022-09-02T05:54:57.109Z,1.23
2022-09-02T05:57:26.483Z,1.20
2022-09-02T05:59:59.144Z,1.20
2022-09-02T06:02:42.009Z,1.38
2022-09-02T06:05:14.964Z,1.13
2022-09-02T06:07:50.842Z,1.30
2022-09-02T06:10:22.657Z,1.08
2022-09-02T06:12:52.188Z,1.20
2022-09-02T06:15:23.515Z,1.33
2022-09-02T06:17:52.048Z,1.15
2022-09-02T06:20:20.611Z,1.30
2022-09-02T06:22:51.444Z,1.42
2022-09-02T06:25:21.930Z,1.40
2022-09-02T06:27:50.628Z,1.15
2022-09-02T06:30:19.670Z,1.38
2022-09-02T06:32:50.380Z,1.30
2022-09-02T06:37:49.894Z,1.50
2022-09-02T06:40:20.039Z,1.40
2022-09-02T06:42:50.385Z,1.42
2022-09-02T06:45:31.554Z,1.48
2022-09-02T06:48:03.609Z,1.40
2022-09-02T06:50:40.912Z,1.20
2022-09-02T06:53:11.870Z,1.40
2022-09-02T06:55:45.344Z,1.70
2022-09-02T07:00:43.311Z,1.33
2022-09-02T07:03:30.962Z,1.48
2022-09-02T07:06:04.804Z,1.30
2022-09-02T07:08:35.198Z,1.20
2022-09-02T07:11:06.242Z,1.30
2022-09-02T07:13:35.512Z,1.50
2022-09-02T07:16:07.695Z,1.40
2022-09-02T07:18:37.083Z,1.52
2022-09-02T07:21:06.020Z,1.30
2022-09-02T07:23:39.159Z,1.25
2022-09-02T07:26:18.395Z,1.50
2022-09-02T07:28:49.246Z,1.20
2022-09-02T07:31:18.648Z,1.42
2022-09-02T07:33:49.856Z,1.30
2022-09-02T07:36:21.781Z,1.23
2022-09-02T07:38:54.131Z,1.30
2022-09-02T07:41:27.244Z,1.25
2022-09-02T07:43:59.511Z,1.30
2022-09-02T07:46:32.538Z,1.58
2022-09-02T07:49:04.222Z,1.40
2022-09-02T07:51:57.487Z,1.40
2022-09-02T07:56:58.700Z,1.20
2022-09-02T07:59:27.753Z,1.40
2022-09-02T08:01:59.239Z,1.42
2022-09-02T08:04:28.376Z,1.40
2022-09-02T08:06:57.864Z,1.48
2022-09-02T08:09:29.335Z,1.40
2022-09-02T08:12:00.562Z,1.27
2022-09-02T08:14:41.815Z,1.50
2022-09-02T08:17:12.869Z,1.40
2022-09-02T08:19:41.431Z,1.48
2022-09-02T08:22:10.225Z,1.70
2022-09-02T08:24:39.387Z,1.30
2022-09-02T08:27:09.405Z,1.58
2022-09-02T08:29:38.070Z,1.42
2022-09-02T08:32:07.161Z,1.50
2022-09-02T08:34:36.754Z,1.50
2022-09-02T08:37:06.538Z,1.40
2022-09-02T08:39:35.084Z,1.50
2022-09-02T08:42:10.169Z,1.70
2022-09-02T08:44:41.079Z,1.40
2022-09-02T08:47:17.479Z,1.40
2022-09-02T08:49:49.120Z,1.25
2022-09-02T08:52:24.054Z,1.40
2022-09-02T08:54:55.656Z,1.25
2022-09-02T08:57:27.240Z,1.45
2022-09-02T08:59:59.136Z,1.40
2022-09-02T09:02:35.671Z,1.30
2022-09-02T09:05:15.683Z,1.13
2022-09-02T09:07:55.609Z,1.40
2022-09-02T09:10:29.691Z,1.48
2022-09-02T09:13:23.600Z,1.52
2022-09-02T09:16:00.600Z,1.40
2022-09-02T09:18:38.848Z,1.50
2022-09-02T09:21:10.990Z,1.40
2022-09-02T09:23:41.341Z,1.40
2022-09-02T09:26:11.816Z,1.13
2022-09-02T09:28:43.763Z,1.40
2022-09-02T09:31:15.754Z,1.38
2022-09-02T09:33:57.541Z,1.33
2022-09-02T09:36:48.203Z,1.50
2022-09-02T09:39:22.634Z,1.40
2022-09-02T09:41:52.888Z,1.50
2022-09-02T09:44:40.995Z,1.65
2022-09-02T09:47:18.111Z,1.20
2022-09-02T09:49:47.947Z,1.60
2022-09-02T09:52:27.224Z,1.45
2022-09-02T09:55:25.520Z,1.35
2022-09-02T09:58:11.404Z,1.40
2022-09-02T10:00:41.573Z,1.30
2022-09-02T10:03:20.312Z,1.30
2022-09-02T10:05:48.992Z,1.25
2022-09-02T10:08:22.920Z,1.45
2022-09-02T10:11:02.602Z,1.42
2022-09-02T10:13:59.721Z,1.35
2022-09-02T10:16:44.214Z,1.30
2022-09-02T10:19:26.632Z,1.35
2022-09-02T10:23:00.025Z,1.10
2022-09-02T10:25:41.132Z,1.40
2022-09-02T10:28:23.092Z,1.23
2022-09-02T10:31:01.054Z,1.00
2022-09-02T10:33:44.029Z,1.20
2022-09-02T10:36:25.169Z,1.42
2022-09-02T10:38:53.863Z,1.05
2022-09-02T10:44:34.176Z,1.20
2022-09-02T10:47:04.926Z,1.10
2022-09-02T10:49:53.513Z,1.15
2022-09-02T10:52:35.141Z,1.00
2022-09-02T10:55:14.619Z,1.30
2022-09-02T10:57:52.905Z,1.30
2022-09-02T11:00:24.002Z,1.13
2022-09-02T11:03:11.327Z,1.30
2022-09-02T11:05:49.685Z,1.38
2022-09-02T11:08:29.560Z,1.25
2022-09-02T11:11:06.728Z,1.20
2022-09-02T11:13:41.180Z,1.27
2022-09-02T11:16:16.379Z,1.17
2022-09-02T11:18:51.953Z,1.20
2022-09-02T11:21:33.232Z,1.08
2022-09-02T11:24:06.470Z,1.20
2022-09-02T11:26:40.689Z,1.30
2022-09-02T11:29:20.316Z,1.10
2022-09-02T11:31:53.413Z,1.10
2022-09-02T11:34:35.817Z,1.30
2022-09-02T11:37:08.402Z,1.23
2022-09-02T11:40:11.658Z,1.40
2022-09-02T11:42:57.505Z,1.30
2022-09-02T11:45:49.257Z,1.20
2022-09-02T11:48:52.442Z,1.45
2022-09-02T11:51:48.015Z,1.20
2022-09-02T11:54:21.134Z,1.40
2022-09-02T11:56:53.549Z,1.20
2022-09-02T11:59:24.487Z,1.17
2022-09-02T12:01:54.620Z,1.10
2022-09-02T12:07:49.947Z,1.00
2022-09-02T12:10:51.636Z,1.20
2022-09-02T12:13:40.993Z,1.05
2022-09-02T12:16:36.813Z,1.10
2022-09-02T12:19:42.516Z,1.20
2022-09-02T12:22:38.542Z,1.00
2022-09-02T12:25:43.346Z,1.10
2022-09-02T12:28:23.968Z,1.10
2022-09-02T12:31:26.843Z,1.20
2022-09-02T12:33:57.890Z,1.30
2022-09-02T12:36:46.861Z,1.15
2022-09-02T12:39:57.292Z,1.10
2022-09-02T12:42:33.510Z,1.00
2022-09-02T12:45:11.307Z,1.20
2022-09-02T12:47:52.015Z,1.10
2022-09-02T12:50:28.119Z,1.27
2022-09-02T12:53:20.484Z,1.15
2022-09-02T12:55:57.275Z,1.10
2022-09-02T12:58:26.094Z,1.02
2022-09-02T13:01:01.734Z,1.10
2022-09-02T13:03:59.222Z,1.20
2022-09-02T13:06:42.922Z,1.20
2022-09-02T13:09:40.859Z,1.00
2022-09-02T13:12:35.688Z,1.23
2022-09-02T13:15:13.482Z,1.10
2022-09-02T13:17:56.102Z,1.10
2022-09-02T13:20:55.663Z,1.10
2022-09-02T13:24:00.331Z,1.00
2022-09-02T13:26:56.209Z,1.10
2022-09-02T13:29:59.695Z,1.15
2022-09-02T13:32:31.014Z,0.90
2022-09-02T13:35:03.698Z,1.37
2022-09-02T13:37:36.735Z,1.10
2022-09-02T13:40:19.387Z,1.20
2022-09-02T13:42:52.136Z,1.20
2022-09-02T13:45:22.498Z,1.30
2022-09-02T13:47:53.121Z,1.25
2022-09-02T13:50:24.316Z,1.08
2022-09-02T13:55:52.760Z,1.20
2022-09-02T13:58:27.075Z,0.88
2022-09-02T14:01:01.725Z,1.23
2022-09-02T14:03:33.577Z,1.10
2022-09-02T14:06:03.933Z,1.10
2022-09-02T14:08:33.073Z,1.20
2022-09-02T14:11:08.356Z,1.50
2022-09-02T14:13:38.356Z,1.20
2022-09-02T14:16:28.763Z,1.13
2022-09-02T14:19:14.530Z,1.20
2022-09-02T14:21:48.339Z,1.20
2022-09-02T14:24:21.258Z,1.10
2022-09-02T14:26:54.325Z,1.10
2022-09-02T14:29:23.618Z,1.08
2022-09-02T14:32:12.562Z,1.20
2022-09-02T14:34:42.218Z,1.60
2022-09-02T14:37:23.385Z,1.20
2022-09-02T14:40:11.748Z,1.20
2022-09-02T14:42:57.474Z,1.20
2022-09-02T14:45:28.790Z,1.40
2022-09-02T14:47:59.867Z,1.20
2022-09-02T14:50:32.773Z,1.33
2022-09-02T14:53:05.760Z,1.20
2022-09-02T14:55:50.138Z,1.30
2022-09-02T14:58:26.807Z,1.30
2022-09-02T15:00:57.825Z,1.13
2022-09-02T15:03:32.638Z,1.48
2022-09-02T15:06:01.350Z,1.20
2022-09-02T15:08:35.812Z,1.30
2022-09-02T15:11:05.640Z,1.10
2022-09-02T15:13:36.102Z,1.23
2022-09-02T15:16:05.107Z,1.10
2022-09-02T15:18:33.595Z,1.38
2022-09-02T15:21:03.486Z,1.50
2022-09-02T15:23:34.745Z,1.40
2022-09-02T15:26:07.428Z,1.50
2022-09-02T15:28:38.546Z,1.30
2022-09-02T15:31:07.671Z,1.20
2022-09-02T15:33:37.592Z,1.27
2022-09-02T15:36:11.343Z,1.13
2022-09-02T15:38:41.187Z,1.25
2022-09-02T15:41:17.393Z,1.20
2022-09-02T15:43:48.601Z,1.55
2022-09-02T15:46:23.375Z,1.75
2022-09-02T15:48:52.455Z,1.40
2022-09-02T15:51:22.566Z,1.35
2022-09-02T15:54:23.281Z,1.35
2022-09-02T15:56:57.138Z,1.20
2022-09-02T15:59:28.330Z,1.20
2022-09-02T16:01:58.850Z,1.30
2022-09-02T16:04:29.478Z,1.30
2022-09-02T16:06:58.337Z,1.27
2022-09-02T16:09:26.946Z,1.35
2022-09-02T16:11:57.010Z,1.25
2022-09-02T16:14:27.656Z,1.30
2022-09-02T16:16:57.725Z,1.38
2022-09-02T16:19:30.221Z,1.23
2022-09-02T16:21:59.232Z,1.10
2022-09-02T16:24:27.869Z,1.20
2022-09-02T16:26:56.299Z,1.25
2022-09-02T16:29:28.307Z,1.20
2022-09-02T16:34:49.223Z,1.27
2022-09-02T16:37:17.680Z,1.20
2022-09-02T16:39:45.841Z,1.48
2022-09-02T16:42:14.544Z,1.17
2022-09-02T16:44:42.768Z,1.25
2022-09-02T16:47:13.960Z,1.10
2022-09-02T16:49:46.241Z,1.17
2022-09-02T16:52:14.792Z,1.13
2022-09-02T16:54:43.733Z,1.10
2022-09-02T16:57:12.435Z,1.23
2022-09-02T16:59:40.848Z,1.35
2022-09-02T17:02:14.020Z,1.23
2022-09-02T17:04:42.550Z,1.33
2022-09-02T17:07:11.092Z,1.15
2022-09-02T17:09:39.639Z,1.27
2022-09-02T17:12:08.333Z,1.10
2022-09-02T17:14:36.792Z,1.30
2022-09-02T17:17:05.777Z,1.10
2022-09-02T17:19:35.932Z,1.10
2022-09-02T17:22:04.487Z,1.08
2022-09-02T17:24:33.344Z,1.40
2022-09-02T17:27:02.233Z,1.30
2022-09-02T17:32:20.223Z,1.25
2022-09-02T17:34:51.308Z,1.10
2022-09-02T17:37:20.246Z,1.40
2022-09-02T17:39:49.241Z,1.42
2022-09-02T17:42:16.872Z,1.30
2022-09-02T17:44:46.134Z,1.63
2022-09-02T17:47:20.232Z,1.42
2022-09-02T17:49:50.744Z,1.65
2022-09-02T17:52:21.438Z,1.70
2022-09-02T17:54:51.510Z,1.55
2022-09-02T17:57:25.517Z,1.85
2022-09-02T18:00:18.311Z,1.98
2022-09-02T18:03:13.616Z,1.75
2022-09-02T18:06:06.791Z,2.60
2022-09-02T18:08:41.227Z,2.10
2022-09-02T18:11:09.805Z,1.83
2022-09-02T18:13:48.064Z,1.88
2022-09-02T18:16:32.529Z,1.80
2022-09-02T18:19:16.396Z,2.28
2022-09-02T18:22:06.603Z,2.20
2022-09-02T18:24:52.072Z,1.73
2022-09-02T18:27:28.328Z,1.70
2022-09-02T18:30:06.335Z,1.50
2022-09-02T18:32:53.485Z,1.60
2022-09-02T18:35:30.204Z,1.50
2022-09-02T18:38:09.464Z,1.20
2022-09-02T18:40:44.756Z,1.30
2022-09-02T18:43:23.982Z,1.20
2022-09-02T18:45:55.789Z,1.60
2022-09-02T18:48:29.616Z,1.70
2022-09-02T18:51:03.840Z,1.40
2022-09-02T18:53:37.916Z,1.40
2022-09-02T18:56:09.090Z,1.65
2022-09-02T18:58:43.799Z,1.48
2022-09-02T19:01:20.230Z,1.58
2022-09-02T19:03:49.812Z,1.48
2022-09-02T19:06:20.745Z,1.60
2022-09-02T19:08:57.242Z,1.48
2022-09-02T19:11:27.368Z,1.35
2022-09-02T19:13:57.835Z,1.48
2022-09-02T19:16:28.128Z,1.58
2022-09-02T19:18:56.510Z,1.30
2022-09-02T19:21:33.342Z,1.27
2022-09-02T19:24:06.403Z,1.50
2022-09-02T19:26:35.393Z,1.50
2022-09-02T19:29:05.024Z,1.65
2022-09-02T19:31:33.747Z,1.40
2022-09-02T19:34:04.808Z,1.50
2022-09-02T19:36:34.442Z,1.55
2022-09-02T19:39:04.549Z,1.70
2022-09-02T19:41:33.253Z,1.50
2022-09-02T19:44:01.680Z,1.20
2022-09-02T19:49:18.477Z,1.48
2022-09-02T19:51:47.635Z,1.50
2022-09-02T19:54:18.505Z,1.50
2022-09-02T19:56:47.405Z,1.30
2022-09-02T19:59:15.937Z,1.50
2022-09-02T20:01:46.650Z,1.40
2022-09-02T20:04:15.971Z,1.50
2022-09-02T20:06:44.552Z,1.75
2022-09-02T20:09:12.796Z,1.50
2022-09-02T20:11:42.965Z,1.55
2022-09-02T20:14:11.539Z,1.80
2022-09-02T20:16:40.086Z,1.40
2022-09-02T20:19:12.159Z,1.50
2022-09-02T20:21:45.249Z,1.48
2022-09-02T20:24:16.611Z,1.60
2022-09-02T20:26:56.678Z,1.37
2022-09-02T20:29:46.168Z,1.55
2022-09-02T20:32:29.537Z,1.48
2022-09-02T20:35:07.822Z,1.40
2022-09-02T20:37:45.430Z,1.60
2022-09-02T20:40:34.949Z,1.60
2022-09-02T20:43:30.992Z,1.50
2022-09-02T20:46:07.113Z,1.30
2022-09-02T20:48:53.443Z,1.50
2022-09-02T20:51:25.134Z,1.52
2022-09-02T20:54:07.001Z,1.35
2022-09-02T20:56:43.237Z,1.43
2022-09-02T20:59:21.870Z,1.25
2022-09-02T21:01:51.693Z,1.45
2022-09-02T21:04:31.852Z,1.50
2022-09-02T21:07:04.126Z,1.20
2022-09-02T21:09:42.279Z,1.15
2022-09-02T21:12:19.860Z,1.67
2022-09-02T21:14:56.597Z,1.45
2022-09-02T21:17:37.970Z,1.55
2022-09-02T21:20:19.806Z,1.30
2022-09-02T21:22:56.116Z,1.30
2022-09-02T21:25:29.089Z,1.40
2022-09-02T21:28:04.744Z,1.30
2022-09-02T21:30:40.866Z,1.08
2022-09-02T21:33:13.043Z,1.27
2022-09-02T21:35:44.138Z,1.58
2022-09-02T21:38:16.871Z,1.20
2022-09-02T21:40:58.900Z,1.38
2022-09-02T21:43:39.449Z,1.40
2022-09-02T21:46:16.218Z,1.30
2022-09-02T21:48:58.757Z,1.33
2022-09-02T21:54:16.766Z,1.35
2022-09-02T21:57:06.497Z,1.13
2022-09-02T21:59:57.434Z,1.13
2022-09-02T22:02:35.599Z,1.38
2022-09-02T22:05:15.225Z,1.25
2022-09-02T22:07:49.985Z,1.30
2022-09-02T22:10:29.522Z,1.35
2022-09-02T22:13:03.568Z,1.40
2022-09-02T22:15:43.354Z,1.45
2022-09-02T22:18:21.804Z,1.30
2022-09-02T22:20:54.206Z,1.20
2022-09-02T22:25:56.842Z,1.30
2022-09-02T22:28:36.466Z,1.40
2022-09-02T22:31:11.588Z,1.40
2022-09-02T22:33:47.965Z,1.20
2022-09-02T22:36:26.784Z,1.20
2022-09-02T22:39:01.298Z,1.30
2022-09-02T22:41:39.681Z,1.50
2022-09-02T22:44:12.613Z,1.23
2022-09-02T22:47:05.253Z,1.33
2022-09-02T22:50:00.949Z,1.27
2022-09-02T22:52:49.300Z,1.40
2022-09-02T22:55:27.825Z,1.40
2022-09-02T22:58:05.728Z,1.20
2022-09-02T23:00:41.150Z,1.17
2022-09-02T23:03:18.637Z,1.40
2022-09-02T23:06:04.081Z,1.13
2022-09-02T23:08:37.191Z,1.20
2022-09-02T23:11:11.790Z,1.10
2022-09-02T23:13:56.069Z,1.10
2022-09-02T23:16:35.280Z,1.10
2022-09-02T23:19:13.450Z,1.13
2022-09-02T23:21:56.389Z,1.10
2022-09-02T23:24:33.609Z,1.20
2022-09-02T23:27:10.954Z,1.20
2022-09-02T23:29:41.506Z,1.40
2022-09-02T23:32:33.726Z,1.30
2022-09-02T23:35:17.652Z,1.10
2022-09-02T23:38:02.273Z,1.20
2022-09-02T23:40:39.474Z,1.20
2022-09-02T23:43:08.048Z,1.20
2022-09-02T23:45:37.080Z,1.20
2022-09-02T23:48:26.405Z,1.20
2022-09-02T23:51:20.635Z,1.23
2022-09-02T23:54:27.845Z,1.23
2022-09-02T23:57:12.131Z,1.10
2022-09-02T23:59:57.490Z,1.30
